createdAt,value
2018-03-19T00:00:41.805Z,101914.33
2018-03-19T00:03:45.134Z,101925.09
2018-03-19T00:06:48.504Z,101916.05
2018-03-19T00:09:51.884Z,101915.11
2018-03-19T00:12:56.010Z,101924.45
2018-03-19T00:15:59.390Z,101919.17
2018-03-19T00:19:03.662Z,101919.67
2018-03-19T00:22:06.992Z,101921.14
2018-03-19T00:25:11.842Z,101911.38
2018-03-19T00:28:15.955Z,101914.27
2018-03-19T00:31:19.318Z,101917.08
2018-03-19T00:34:22.739Z,101913.59
2018-03-19T00:37:26.915Z,101912.11
2018-03-19T00:40:30.269Z,101912.55
2018-03-19T00:43:33.728Z,101907.11
2018-03-19T00:46:37.104Z,101906.18
2018-03-19T00:49:40.698Z,101891.37
2018-03-19T00:52:44.094Z,101894.06
2018-03-19T00:55:47.481Z,101887.05
2018-03-19T00:58:51.603Z,101891.95
2018-03-19T01:01:55.746Z,101884.99
2018-03-19T01:04:59.102Z,101890.53
2018-03-19T01:08:03.241Z,101892.59
2018-03-19T01:11:06.633Z,101885.78
2018-03-19T01:14:10.780Z,101885.14
2018-03-19T01:17:14.129Z,101881.30
2018-03-19T01:20:18.245Z,101873.51
2018-03-19T01:23:21.610Z,101864.78
2018-03-19T01:26:24.970Z,101869.19
2018-03-19T01:29:28.331Z,101870.18
2018-03-19T01:32:33.202Z,101865.72
2018-03-19T01:35:36.564Z,101862.67
2018-03-19T01:38:40.679Z,101861.24
2018-03-19T01:41:45.549Z,101858.64
2018-03-19T01:44:48.929Z,101861.59
2018-03-19T01:47:52.379Z,101852.40
2018-03-19T01:50:55.724Z,101849.51
2018-03-19T01:53:59.078Z,101846.66
2018-03-19T01:57:02.429Z,101845.11
2018-03-19T02:00:06.614Z,101844.42
2018-03-19T02:03:09.956Z,101839.59
2018-03-19T02:06:14.112Z,101833.28
2018-03-19T02:09:17.598Z,101825.05
2018-03-19T02:12:20.988Z,101833.10
2018-03-19T02:15:24.449Z,101838.23
2018-03-19T02:18:27.784Z,101830.63
2018-03-19T02:21:31.144Z,101837.51
2018-03-19T02:24:34.499Z,101831.00
2018-03-19T02:27:37.862Z,101831.20
2018-03-19T02:30:41.991Z,101824.73
2018-03-19T02:33:45.369Z,101819.21
2018-03-19T02:36:48.871Z,101818.98
2018-03-19T02:39:53.221Z,101816.22
2018-03-19T02:42:56.582Z,101812.43
2018-03-19T02:46:00.888Z,101813.23
2018-03-19T02:49:04.245Z,101807.70
2018-03-19T02:52:07.595Z,101808.20
2018-03-19T02:55:10.985Z,101808.51
2018-03-19T02:58:14.336Z,101809.42
2018-03-19T03:01:17.700Z,101813.63
2018-03-19T03:04:21.878Z,101809.22
2018-03-19T03:07:25.264Z,101806.97
2018-03-19T03:10:28.630Z,101806.48
2018-03-19T03:13:32.744Z,101808.22
2018-03-19T03:16:36.867Z,101811.08
2018-03-19T03:19:40.992Z,101811.75
2018-03-19T03:22:44.350Z,101806.03
2018-03-19T03:25:47.701Z,101807.05
2018-03-19T03:28:51.095Z,101808.88
2018-03-19T03:31:54.459Z,101796.57
2018-03-19T03:34:58.586Z,101801.67
2018-03-19T03:38:02.699Z,101793.34
2018-03-19T03:41:06.817Z,101788.66
2018-03-19T03:44:10.961Z,101789.28
2018-03-19T03:47:14.366Z,101791.87
2018-03-19T03:50:17.706Z,101788.19
2018-03-19T03:53:21.029Z,101788.41
2018-03-19T03:56:25.153Z,101785.05
2018-03-19T03:59:29.260Z,101788.30
2018-03-19T04:02:33.421Z,101790.89
2018-03-19T04:05:36.792Z,101799.39
2018-03-19T04:08:40.914Z,101808.61
2018-03-19T04:11:44.256Z,101804.52
2018-03-19T04:14:47.636Z,101805.30
2018-03-19T04:17:51.180Z,101805.08
2018-03-19T04:20:56.039Z,101794.75
2018-03-19T04:24:00.158Z,101802.53
2018-03-19T04:27:03.527Z,101795.75
2018-03-19T04:30:08.506Z,101797.70
2018-03-19T04:33:11.878Z,101793.67
2018-03-19T04:36:16.013Z,101789.75
2018-03-19T04:39:19.481Z,101786.00
2018-03-19T04:42:24.342Z,101782.52
2018-03-19T04:45:28.479Z,101780.94
2018-03-19T04:48:31.843Z,101781.98
2018-03-19T04:51:35.206Z,101781.59
2018-03-19T04:54:38.666Z,101780.26
2018-03-19T04:57:42.013Z,101775.18
2018-03-19T05:00:45.382Z,101775.34
2018-03-19T05:03:48.745Z,101769.17
2018-03-19T05:06:52.921Z,101769.28
2018-03-19T05:09:56.393Z,101771.60
2018-03-19T05:12:59.747Z,101771.44
2018-03-19T05:16:03.097Z,101772.72
2018-03-19T05:19:06.444Z,101770.51
2018-03-19T05:22:11.350Z,101770.29
2018-03-19T05:25:14.725Z,101769.23
2018-03-19T05:28:18.118Z,101770.93
2018-03-19T05:31:21.522Z,101768.06
2018-03-19T05:34:25.619Z,101767.00
2018-03-19T05:37:29.737Z,101766.23
2018-03-19T05:40:33.190Z,101768.78
2018-03-19T05:43:36.888Z,101769.21
2018-03-19T05:46:40.257Z,101767.56
2018-03-19T05:49:43.818Z,101769.70
2018-03-19T05:52:47.175Z,101774.18
2018-03-19T05:55:50.659Z,101768.59
2018-03-19T05:58:54.018Z,101770.74
2018-03-19T06:01:58.944Z,101770.30
2018-03-19T06:05:02.301Z,101770.84
2018-03-19T06:08:05.681Z,101777.73
2018-03-19T06:11:09.060Z,101782.72
2018-03-19T06:14:13.291Z,101781.86
2018-03-19T06:17:17.401Z,101781.99
2018-03-19T06:20:21.522Z,101786.23
2018-03-19T06:23:25.638Z,101787.69
2018-03-19T06:26:29.778Z,101782.31
2018-03-19T06:29:33.247Z,101781.37
2018-03-19T06:32:37.366Z,101781.53
2018-03-19T06:35:41.508Z,101786.17
2018-03-19T06:38:45.113Z,101784.34
2018-03-19T06:41:48.461Z,101786.20
2018-03-19T06:44:51.806Z,101786.14
2018-03-19T06:47:55.166Z,101788.67
2018-03-19T06:50:59.312Z,101794.89
2018-03-19T06:54:03.430Z,101796.14
2018-03-19T06:57:06.828Z,101799.59
2018-03-19T07:00:10.175Z,101798.12
2018-03-19T07:03:13.527Z,101794.38
2018-03-19T07:06:16.903Z,101796.31
2018-03-19T07:09:21.058Z,101796.13
2018-03-19T07:12:24.421Z,101806.02
2018-03-19T07:15:28.551Z,101798.68
2018-03-19T07:18:32.781Z,101798.89
2018-03-19T07:21:36.354Z,101795.87
2018-03-19T07:24:39.717Z,101797.20
2018-03-19T07:27:43.098Z,101799.84
2018-03-19T07:30:46.472Z,101793.13
2018-03-19T07:33:50.616Z,101793.14
2018-03-19T07:36:53.974Z,101788.91
2018-03-19T07:39:58.169Z,101789.01
2018-03-19T07:43:01.533Z,101790.08
2018-03-19T07:46:04.930Z,101788.14
2018-03-19T07:49:08.356Z,101787.84
2018-03-19T07:52:11.726Z,101789.81
2018-03-19T07:55:15.094Z,101783.18
2018-03-19T07:58:19.530Z,101779.85
2018-03-19T08:01:22.877Z,101783.41
2018-03-19T08:04:26.330Z,101777.72
2018-03-19T08:07:29.726Z,101781.41
2018-03-19T08:10:33.846Z,101781.70
2018-03-19T08:13:37.214Z,101782.50
2018-03-19T08:16:41.325Z,101787.67
2018-03-19T08:19:44.782Z,101786.99
2018-03-19T08:22:48.262Z,101787.45
2018-03-19T08:25:51.873Z,101789.47
2018-03-19T08:28:55.382Z,101788.71
2018-03-19T08:31:58.739Z,101787.34
2018-03-19T08:35:02.095Z,101785.46
2018-03-19T08:38:05.589Z,101778.61
2018-03-19T08:41:08.932Z,101778.33
2018-03-19T08:44:12.287Z,101770.55
2018-03-19T08:47:15.656Z,101771.28
2018-03-19T08:50:19.814Z,101773.79
2018-03-19T08:53:23.190Z,101773.23
2018-03-19T08:56:26.541Z,101770.20
2018-03-19T08:59:29.910Z,101771.67
2018-03-19T09:02:33.290Z,101769.19
2018-03-19T09:05:36.646Z,101768.86
2018-03-19T09:08:40.020Z,101768.32
2018-03-19T09:11:43.766Z,101767.57
2018-03-19T09:14:48.074Z,101764.59
2018-03-19T09:17:51.434Z,101761.83
2018-03-19T09:20:54.811Z,101763.34
2018-03-19T09:23:58.196Z,101755.86
2018-03-19T09:27:02.293Z,101751.16
2018-03-19T09:30:05.691Z,101754.24
2018-03-19T09:33:09.952Z,101754.56
2018-03-19T09:36:13.337Z,101754.67
2018-03-19T09:39:16.689Z,101750.61
2018-03-19T09:42:21.236Z,101748.44
2018-03-19T09:45:24.590Z,101752.02
2018-03-19T09:48:28.046Z,101748.63
2018-03-19T09:51:32.177Z,101741.86
2018-03-19T09:54:35.655Z,101739.59
2018-03-19T09:57:39.176Z,101733.53
2018-03-19T10:00:42.745Z,101734.16
2018-03-19T10:03:47.616Z,101731.16
2018-03-19T10:06:51.063Z,101727.70
2018-03-19T10:09:54.423Z,101726.24
2018-03-19T10:12:57.768Z,101719.06
2018-03-19T10:16:01.237Z,101720.01
2018-03-19T10:19:04.594Z,101709.69
2018-03-19T10:22:08.759Z,101705.99
2018-03-19T10:25:12.147Z,101704.95
2018-03-19T10:28:15.502Z,101696.05
2018-03-19T10:31:19.630Z,101693.05
2018-03-19T10:34:23.787Z,101693.61
2018-03-19T10:37:27.338Z,101692.23
2018-03-19T10:40:30.682Z,101696.98
2018-03-19T10:43:34.125Z,101688.99
2018-03-19T10:46:38.252Z,101688.56
2018-03-19T10:49:41.649Z,101685.94
2018-03-19T10:52:45.001Z,101688.38
2018-03-19T10:55:48.362Z,101679.70
2018-03-19T10:58:52.486Z,101677.85
2018-03-19T11:02:02.105Z,101672.42
2018-03-19T11:05:10.829Z,101669.88
2018-03-19T11:08:14.174Z,101656.67
2018-03-19T11:11:17.587Z,101652.34
2018-03-19T11:14:20.951Z,101643.77
2018-03-19T11:17:24.301Z,101640.37
2018-03-19T11:20:27.663Z,101640.94
2018-03-19T11:23:31.085Z,101632.88
2018-03-19T11:26:34.659Z,101627.48
2018-03-19T11:29:38.025Z,101623.80
2018-03-19T11:32:41.552Z,101617.75
2018-03-19T11:35:45.669Z,101605.55
2018-03-19T11:38:49.908Z,101605.16
2018-03-19T11:41:53.401Z,101605.88
2018-03-19T11:44:57.637Z,101597.26
2018-03-19T11:48:00.990Z,101598.38
2018-03-19T11:51:05.113Z,101592.26
2018-03-19T11:54:09.249Z,101585.95
2018-03-19T11:57:12.590Z,101576.44
2018-03-19T12:00:15.943Z,101564.09
2018-03-19T12:03:20.073Z,101567.20
2018-03-19T12:06:23.488Z,101562.41
2018-03-19T12:09:26.859Z,101555.27
2018-03-19T12:12:30.258Z,101549.20
2018-03-19T12:15:33.710Z,101553.61
2018-03-19T12:18:37.096Z,101551.89
2018-03-19T12:21:40.475Z,101539.17
2018-03-19T12:24:43.835Z,101537.20
2018-03-19T12:27:47.966Z,101542.42
2018-03-19T12:30:52.089Z,101535.53
2018-03-19T12:33:55.621Z,101538.70
2018-03-19T12:36:59.043Z,101532.20
2018-03-19T12:40:02.435Z,101525.88
2018-03-19T12:43:05.798Z,101523.48
2018-03-19T12:46:09.172Z,101518.02
2018-03-19T12:49:13.338Z,101514.78
2018-03-19T12:52:16.810Z,101516.78
2018-03-19T12:55:20.177Z,101511.17
2018-03-19T12:58:23.530Z,101507.05
2018-03-19T13:01:26.940Z,101503.36
2018-03-19T13:04:31.180Z,101501.20
2018-03-19T13:07:34.538Z,101490.65
2018-03-19T13:10:37.917Z,101487.36
2018-03-19T13:13:41.270Z,101489.95
2018-03-19T13:16:44.629Z,101480.01
2018-03-19T13:19:47.990Z,101485.67
2018-03-19T13:22:51.382Z,101479.28
2018-03-19T13:25:54.791Z,101482.17
2018-03-19T13:28:58.187Z,101479.89
2018-03-19T13:32:01.541Z,101472.62
2018-03-19T13:35:04.913Z,101469.65
2018-03-19T13:38:09.030Z,101460.70
2018-03-19T13:41:12.409Z,101464.47
2018-03-19T13:44:16.557Z,101467.67
2018-03-19T13:47:19.907Z,101460.78
2018-03-19T13:50:24.267Z,101458.91
2018-03-19T13:53:27.666Z,101454.65
2018-03-19T13:56:31.003Z,101454.98
2018-03-19T13:59:34.400Z,101446.13
2018-03-19T14:02:37.765Z,101446.68
2018-03-19T14:05:41.197Z,101447.31
2018-03-19T14:08:45.279Z,101449.02
2018-03-19T14:11:48.665Z,101435.04
2018-03-19T14:14:52.803Z,101439.25
2018-03-19T14:17:56.194Z,101436.59
2018-03-19T14:20:59.696Z,101428.19
2018-03-19T14:24:03.126Z,101423.06
2018-03-19T14:27:06.489Z,101408.44
2018-03-19T14:30:10.614Z,101411.95
2018-03-19T14:33:14.005Z,101401.52
2018-03-19T14:36:18.173Z,101397.14
2018-03-19T14:39:21.534Z,101385.27
2018-03-19T14:42:24.910Z,101375.18
2018-03-19T14:45:29.687Z,101373.72
2018-03-19T14:48:33.042Z,101363.69
2018-03-19T14:51:37.137Z,101363.95
2018-03-19T14:54:40.493Z,101361.08
2018-03-19T14:57:43.863Z,101354.52
2018-03-19T15:00:47.214Z,101349.63
2018-03-19T15:03:50.573Z,101337.66
2018-03-19T15:06:53.970Z,101332.95
2018-03-19T15:09:57.333Z,101311.97
2018-03-19T15:13:00.728Z,101299.39
2018-03-19T15:16:05.895Z,101306.56
2018-03-19T15:19:10.021Z,101293.91
2018-03-19T15:22:14.142Z,101292.05
2018-03-19T15:25:17.550Z,101290.94
2018-03-19T15:28:20.931Z,101288.71
2018-03-19T15:31:25.082Z,101281.93
2018-03-19T15:34:28.424Z,101275.33
2018-03-19T15:37:31.883Z,101277.87
2018-03-19T15:40:35.205Z,101279.78
2018-03-19T15:43:38.689Z,101267.84
2018-03-19T15:46:42.153Z,101273.33
2018-03-19T15:49:45.509Z,101269.39
2018-03-19T15:52:50.385Z,101271.25
2018-03-19T15:55:54.524Z,101258.42
2018-03-19T15:58:57.870Z,101260.96
2018-03-19T16:02:01.223Z,101245.02
2018-03-19T16:05:05.336Z,101244.88
2018-03-19T16:08:08.679Z,101243.53
2018-03-19T16:11:12.810Z,101239.47
2018-03-19T16:14:16.182Z,101246.20
2018-03-19T16:17:19.690Z,101241.39
2018-03-19T16:20:23.034Z,101242.86
2018-03-19T16:23:26.448Z,101241.86
2018-03-19T16:26:29.866Z,101242.88
2018-03-19T16:29:33.262Z,101234.45
2018-03-19T16:32:36.683Z,101241.29
2018-03-19T16:35:40.042Z,101235.21
2018-03-19T16:38:43.411Z,101238.68
2018-03-19T16:41:47.526Z,101238.91
2018-03-19T16:44:51.746Z,101237.64
2018-03-19T16:47:56.267Z,101233.56
2018-03-19T16:50:59.638Z,101227.50
2018-03-19T16:54:03.002Z,101233.02
2018-03-19T16:57:06.357Z,101218.45
2018-03-19T17:00:09.719Z,101226.59
2018-03-19T17:03:13.161Z,101214.91
2018-03-19T17:06:16.543Z,101209.47
2018-03-19T17:09:21.426Z,101223.04
2018-03-19T17:12:24.953Z,101220.14
2018-03-19T17:15:28.353Z,101216.22
2018-03-19T17:18:31.712Z,101209.30
2018-03-19T17:21:35.844Z,101216.59
2018-03-19T17:24:39.220Z,101219.41
2018-03-19T17:27:43.403Z,101208.27
2018-03-19T17:30:46.956Z,101202.22
2018-03-19T17:33:50.469Z,101207.20
2018-03-19T17:36:53.858Z,101203.69
2018-03-19T17:39:57.275Z,101205.66
2018-03-19T17:43:00.663Z,101202.42
2018-03-19T17:46:04.032Z,101196.95
2018-03-19T17:49:07.397Z,101190.73
2018-03-19T17:52:10.765Z,101183.17
2018-03-19T17:55:15.977Z,101184.31
2018-03-19T17:58:20.126Z,101186.80
2018-03-19T18:01:23.556Z,101181.36
2018-03-19T18:04:26.837Z,101184.30
2018-03-19T18:07:30.235Z,101176.44
2018-03-19T18:10:33.619Z,101158.04
2018-03-19T18:13:36.994Z,101161.52
2018-03-19T18:16:41.122Z,101158.61
2018-03-19T18:19:45.253Z,101161.91
2018-03-19T18:22:48.631Z,101158.42
2018-03-19T18:25:52.786Z,101154.84
2018-03-19T18:28:56.182Z,101146.52
2018-03-19T18:31:59.621Z,101144.16
2018-03-19T18:35:03.778Z,101145.57
2018-03-19T18:38:07.890Z,101137.23
2018-03-19T18:41:11.278Z,101139.22
2018-03-19T18:44:15.403Z,101137.00
2018-03-19T18:47:19.627Z,101133.02
2018-03-19T18:50:22.989Z,101125.37
2018-03-19T18:53:27.136Z,101122.07
2018-03-19T18:56:31.265Z,101122.65
2018-03-19T18:59:34.629Z,101116.03
2018-03-19T19:02:37.988Z,101112.26
2018-03-19T19:05:42.180Z,101102.03
2018-03-19T19:08:45.578Z,101093.06
2018-03-19T19:11:48.963Z,101087.97
2018-03-19T19:14:53.083Z,101091.44
2018-03-19T19:17:57.215Z,101072.51
2018-03-19T19:21:00.676Z,101067.67
2018-03-19T19:24:04.102Z,101069.69
2018-03-19T19:27:08.294Z,101069.70
2018-03-19T19:30:13.478Z,101065.14
2018-03-19T19:33:16.948Z,101061.30
2018-03-19T19:36:21.137Z,101048.58
2018-03-19T19:39:26.078Z,101042.73
2018-03-19T19:42:30.347Z,101050.09
2018-03-19T19:45:33.842Z,101044.55
2018-03-19T19:48:37.231Z,101035.34
2018-03-19T19:51:41.385Z,101037.48
2018-03-19T19:54:44.758Z,101031.06
2018-03-19T19:57:48.128Z,101033.41
2018-03-19T20:00:51.578Z,101033.66
2018-03-19T20:03:54.943Z,101037.27
2018-03-19T20:06:59.099Z,101030.25
2018-03-19T20:10:02.457Z,101037.67
2018-03-19T20:13:06.708Z,101039.77
2018-03-19T20:16:10.124Z,101030.05
2018-03-19T20:19:13.509Z,101021.34
2018-03-19T20:22:16.867Z,101012.34
2018-03-19T20:25:20.298Z,101009.72
2018-03-19T20:28:23.823Z,101005.27
2018-03-19T20:31:27.170Z,101008.62
2018-03-19T20:34:31.299Z,101011.91
2018-03-19T20:37:35.431Z,101009.60
2018-03-19T20:40:38.784Z,101006.86
2018-03-19T20:43:42.952Z,101002.09
2018-03-19T20:46:46.328Z,100999.67
2018-03-19T20:49:50.554Z,101001.19
2018-03-19T20:52:54.715Z,100988.02
2018-03-19T20:55:58.698Z,100978.41
2018-03-19T20:59:02.055Z,100979.07
2018-03-19T21:02:05.450Z,100980.64
2018-03-19T21:05:08.798Z,100975.70
2018-03-19T21:08:12.788Z,100968.09
2018-03-19T21:11:16.916Z,100971.24
2018-03-19T21:14:20.341Z,100966.70
2018-03-19T21:17:23.797Z,100965.53
2018-03-19T21:20:27.971Z,100963.50
2018-03-19T21:23:31.335Z,100963.91
2018-03-19T21:26:34.766Z,100962.20
2018-03-19T21:29:38.133Z,100948.16
2018-03-19T21:32:41.514Z,100948.38
2018-03-19T21:35:45.682Z,100951.50
2018-03-19T21:38:49.050Z,100941.63
2018-03-19T21:41:52.429Z,100941.65
2018-03-19T21:44:56.559Z,100941.52
2018-03-19T21:48:00.692Z,100941.89
2018-03-19T21:51:04.050Z,100944.44
2018-03-19T21:54:07.376Z,100941.23
2018-03-19T21:57:11.504Z,100933.72
2018-03-19T22:00:14.898Z,100934.86
2018-03-19T22:03:18.256Z,100931.25
2018-03-19T22:06:22.377Z,100926.30
2018-03-19T22:09:25.741Z,100911.47
2018-03-19T22:12:29.153Z,100911.74
2018-03-19T22:15:32.513Z,100914.55
2018-03-19T22:18:35.876Z,100907.12
2018-03-19T22:21:39.243Z,100904.38
2018-03-19T22:24:42.600Z,100901.31
2018-03-19T22:27:46.117Z,100887.39
2018-03-19T22:30:50.594Z,100882.85
2018-03-19T22:33:53.986Z,100895.48
2018-03-19T22:36:57.417Z,100900.48
2018-03-19T22:40:02.503Z,100897.41
2018-03-19T22:43:05.873Z,100900.15
2018-03-19T22:46:09.226Z,100898.26
2018-03-19T22:49:12.595Z,100886.77
2018-03-19T22:52:15.974Z,100882.16
2018-03-19T22:55:19.341Z,100880.84
2018-03-19T22:58:23.477Z,100870.80
2018-03-19T23:01:26.839Z,100870.83
2018-03-19T23:04:48.625Z,100871.91
2018-03-19T23:07:51.996Z,100869.36
2018-03-19T23:10:56.135Z,100872.45
2018-03-19T23:13:59.555Z,100874.64
2018-03-19T23:17:02.922Z,100870.09
2018-03-19T23:20:07.042Z,100865.19
2018-03-19T23:23:10.444Z,100846.47
2018-03-19T23:26:13.802Z,100863.36
2018-03-19T23:29:17.914Z,100858.20
2018-03-19T23:32:21.293Z,100855.73
2018-03-19T23:35:24.642Z,100868.40
2018-03-19T23:38:28.761Z,100877.59
2018-03-19T23:41:32.882Z,100883.39
2018-03-19T23:44:36.242Z,100886.62
2018-03-19T23:47:39.622Z,100895.30
2018-03-19T23:50:42.981Z,100890.00
2018-03-19T23:53:46.360Z,100891.11
2018-03-19T23:56:50.488Z,100888.30
2018-03-19T23:59:54.819Z,100889.25
